createdAt,value
2019-05-18T00:00:52.694Z,21.10
2019-05-18T00:01:52.688Z,21.10
2019-05-18T00:02:52.681Z,22.00
2019-05-18T00:03:52.677Z,21.70
2019-05-18T00:04:52.678Z,21.70
2019-05-18T00:05:52.671Z,22.50
2019-05-18T00:06:52.672Z,22.60
2019-05-18T00:07:52.690Z,22.20
2019-05-18T00:08:52.660Z,22.30
2019-05-18T00:09:52.653Z,22.70
2019-05-18T00:10:52.650Z,22.70
2019-05-18T00:11:52.647Z,23.20
2019-05-18T00:12:52.641Z,22.10
2019-05-18T00:13:52.636Z,23.50
2019-05-18T00:14:52.632Z,23.10
2019-05-18T00:15:52.632Z,23.30
2019-05-18T00:16:52.629Z,23.80
2019-05-18T00:17:52.632Z,23.40
2019-05-18T00:18:52.616Z,23.40
2019-05-18T00:19:52.612Z,23.70
2019-05-18T00:20:52.610Z,23.70
2019-05-18T00:21:52.605Z,23.70
2019-05-18T00:22:52.607Z,23.50
2019-05-18T00:23:52.596Z,24.20
2019-05-18T00:24:52.594Z,24.50
2019-05-18T00:25:52.588Z,24.80
2019-05-18T00:26:52.598Z,24.80
2019-05-18T00:27:52.580Z,25.00
2019-05-18T00:28:52.576Z,25.50
2019-05-18T00:29:52.569Z,25.10
2019-05-18T00:30:52.567Z,24.90
2019-05-18T00:31:52.563Z,25.80
2019-05-18T00:32:52.562Z,25.20
2019-05-18T00:33:52.554Z,24.90
2019-05-18T00:34:52.552Z,26.00
2019-05-18T00:35:52.547Z,26.00
2019-05-18T00:36:52.542Z,25.70
2019-05-18T00:37:52.537Z,27.00
2019-05-18T00:38:52.541Z,25.90
2019-05-18T00:39:52.531Z,26.40
2019-05-18T00:40:52.526Z,26.70
2019-05-18T00:41:52.520Z,26.70
2019-05-18T00:42:52.517Z,27.70
2019-05-18T00:43:52.514Z,26.40
2019-05-18T00:44:52.510Z,27.10
2019-05-18T00:45:52.507Z,25.60
2019-05-18T00:46:52.500Z,27.00
2019-05-18T00:47:52.495Z,28.30
2019-05-18T00:48:52.493Z,26.90
2019-05-18T00:49:52.487Z,28.20
2019-05-18T00:50:52.482Z,27.40
2019-05-18T00:51:52.478Z,28.50
2019-05-18T00:52:52.478Z,28.40
2019-05-18T00:53:52.470Z,29.00
2019-05-18T00:54:52.466Z,29.30
2019-05-18T00:55:52.466Z,28.50
2019-05-18T00:56:52.460Z,28.40
2019-05-18T00:57:52.451Z,28.20
2019-05-18T00:58:52.448Z,29.30
2019-05-18T00:59:52.445Z,28.70
2019-05-18T01:00:52.442Z,29.40
2019-05-18T01:01:52.440Z,29.70
2019-05-18T01:02:52.430Z,29.70
2019-05-18T01:03:52.428Z,30.20
2019-05-18T01:04:52.425Z,30.30
2019-05-18T01:05:52.418Z,30.40
2019-05-18T01:06:52.412Z,30.00
2019-05-18T01:07:52.409Z,30.50
2019-05-18T01:08:52.406Z,30.20
2019-05-18T01:09:52.402Z,30.10
2019-05-18T01:10:52.399Z,30.70
2019-05-18T01:11:52.393Z,31.00
2019-05-18T01:12:52.388Z,30.90
2019-05-18T01:13:52.381Z,32.40
2019-05-18T01:14:52.378Z,32.70
2019-05-18T01:15:52.375Z,32.10
2019-05-18T01:16:52.372Z,31.30
2019-05-18T01:17:57.297Z,31.50
2019-05-18T01:18:52.361Z,32.60
2019-05-18T01:19:52.355Z,33.30
2019-05-18T01:20:52.356Z,32.10
2019-05-18T01:21:52.352Z,33.30
2019-05-18T01:22:52.344Z,33.10
2019-05-18T01:23:52.338Z,33.70
2019-05-18T01:24:52.336Z,33.30
2019-05-18T01:25:52.329Z,34.00
2019-05-18T01:26:52.324Z,33.90
2019-05-18T01:27:52.320Z,34.80
2019-05-18T01:28:52.316Z,33.60
2019-05-18T01:29:52.314Z,33.30
2019-05-18T01:30:52.309Z,35.50
2019-05-18T01:31:52.305Z,34.00
2019-05-18T01:32:52.300Z,33.90
2019-05-18T01:33:52.294Z,33.70
2019-05-18T01:34:52.291Z,34.80
2019-05-18T01:35:52.284Z,35.50
2019-05-18T01:36:52.281Z,35.10
2019-05-18T01:37:52.278Z,35.20
2019-05-18T01:38:52.270Z,34.70
2019-05-18T01:39:52.267Z,35.10
2019-05-18T01:40:52.262Z,34.10
2019-05-18T01:41:52.257Z,35.30
2019-05-18T01:42:52.252Z,34.10
2019-05-18T01:43:52.248Z,35.40
2019-05-18T01:44:52.246Z,33.00
2019-05-18T01:45:52.240Z,32.30
2019-05-18T01:46:52.235Z,32.10
2019-05-18T01:47:52.229Z,37.20
2019-05-18T01:48:52.228Z,39.20
2019-05-18T01:49:52.233Z,34.20
2019-05-18T01:50:52.216Z,41.00
2019-05-18T01:51:52.213Z,38.10
2019-05-18T01:52:52.209Z,40.90
2019-05-18T01:53:52.202Z,39.60
2019-05-18T01:54:52.197Z,35.50
2019-05-18T01:55:52.200Z,39.40
2019-05-18T01:56:52.194Z,40.00
2019-05-18T01:57:52.184Z,41.30
2019-05-18T01:58:52.180Z,40.70
2019-05-18T01:59:52.175Z,41.00
2019-05-18T02:00:52.187Z,40.40
2019-05-18T02:01:52.164Z,40.70
2019-05-18T02:02:52.159Z,41.80
2019-05-18T02:03:52.157Z,40.80
2019-05-18T02:04:52.202Z,39.40
2019-05-18T02:05:52.148Z,40.30
2019-05-18T02:06:52.160Z,39.60
2019-05-18T02:07:52.138Z,40.40
2019-05-18T02:08:52.135Z,42.20
2019-05-18T02:09:52.126Z,40.80
2019-05-18T02:10:52.123Z,41.70
2019-05-18T02:11:52.121Z,42.30
2019-05-18T02:12:52.111Z,41.00
2019-05-18T02:13:52.107Z,41.20
2019-05-18T02:14:52.104Z,40.90
2019-05-18T02:15:52.100Z,42.30
2019-05-18T02:16:52.094Z,41.20
2019-05-18T02:17:52.095Z,42.40
2019-05-18T02:18:52.086Z,41.40
2019-05-18T02:19:52.081Z,42.10
2019-05-18T02:20:52.076Z,42.20
2019-05-18T02:21:52.071Z,42.90
2019-05-18T02:22:52.065Z,43.90
2019-05-18T02:23:52.063Z,43.40
2019-05-18T02:24:52.055Z,41.90
2019-05-18T02:25:52.051Z,42.80
2019-05-18T02:26:52.047Z,42.70
2019-05-18T02:27:52.040Z,42.80
2019-05-18T02:28:52.044Z,42.20
2019-05-18T02:29:52.030Z,45.10
2019-05-18T02:30:52.025Z,44.30
2019-05-18T02:31:52.021Z,44.20
2019-05-18T02:32:52.019Z,43.50
2019-05-18T02:33:52.013Z,45.10
2019-05-18T02:34:52.015Z,37.50
2019-05-18T02:35:52.000Z,45.60
2019-05-18T02:36:51.997Z,47.80
2019-05-18T02:37:51.993Z,45.90
2019-05-18T02:38:51.987Z,47.00
2019-05-18T02:39:51.981Z,47.30
2019-05-18T02:40:51.980Z,46.70
2019-05-18T02:41:51.971Z,46.10
2019-05-18T02:42:51.971Z,48.00
2019-05-18T02:43:51.963Z,47.90
2019-05-18T02:44:51.958Z,48.30
2019-05-18T02:45:51.951Z,46.20
2019-05-18T02:46:51.959Z,47.70
2019-05-18T02:47:51.942Z,45.60
2019-05-18T02:48:51.938Z,45.50
2019-05-18T02:49:51.941Z,50.10
2019-05-18T02:50:51.929Z,48.50
2019-05-18T02:51:51.926Z,46.40
2019-05-18T02:52:51.917Z,45.40
2019-05-18T02:53:51.913Z,50.70
2019-05-18T02:54:51.909Z,48.80
2019-05-18T02:55:51.903Z,44.70
2019-05-18T02:56:51.898Z,46.60
2019-05-18T02:57:51.893Z,46.70
2019-05-18T02:58:51.889Z,46.50
2019-05-18T02:59:51.882Z,44.80
2019-05-18T03:00:51.882Z,44.90
2019-05-18T03:01:51.871Z,50.60
2019-05-18T03:02:51.873Z,52.50
2019-05-18T03:03:51.866Z,50.40
2019-05-18T03:04:51.942Z,50.40
2019-05-18T03:05:51.855Z,60.20
2019-05-18T03:06:51.850Z,58.50
2019-05-18T03:07:51.847Z,58.10
2019-05-18T03:08:51.849Z,57.20
2019-05-18T03:09:51.842Z,57.30
2019-05-18T03:10:51.833Z,58.00
2019-05-18T03:11:51.825Z,56.40
2019-05-18T03:12:51.829Z,56.60
2019-05-18T03:13:51.815Z,55.30
2019-05-18T03:14:51.810Z,56.80
2019-05-18T03:15:51.805Z,57.00
2019-05-18T03:16:51.809Z,57.40
2019-05-18T03:17:51.799Z,54.80
2019-05-18T03:19:06.767Z,53.60
2019-05-18T03:19:51.788Z,53.90
2019-05-18T03:20:51.782Z,52.90
2019-05-18T03:21:51.785Z,53.70
2019-05-18T03:22:51.776Z,51.70
2019-05-18T03:23:51.784Z,52.00
2019-05-18T03:24:51.776Z,51.10
2019-05-18T03:25:51.758Z,50.10
2019-05-18T03:26:51.760Z,51.60
2019-05-18T03:27:51.745Z,49.90
2019-05-18T03:28:51.747Z,48.50
2019-05-18T03:29:51.772Z,48.40
2019-05-18T03:30:51.740Z,49.90
2019-05-18T03:31:51.737Z,49.40
2019-05-18T03:32:51.726Z,49.30
2019-05-18T03:33:51.720Z,49.90
2019-05-18T03:34:51.710Z,49.20
2019-05-18T03:35:51.704Z,49.70
2019-05-18T03:36:51.700Z,49.70
2019-05-18T03:37:51.708Z,51.60
2019-05-18T03:38:51.688Z,48.70
2019-05-18T03:39:51.707Z,51.00
2019-05-18T03:40:51.698Z,51.20
2019-05-18T03:41:51.684Z,52.70
2019-05-18T03:42:51.674Z,50.30
2019-05-18T03:43:51.692Z,49.70
2019-05-18T03:44:51.674Z,50.00
2019-05-18T03:45:51.687Z,50.50
2019-05-18T03:46:51.712Z,51.70
2019-05-18T03:47:51.646Z,51.70
2019-05-18T03:48:51.637Z,51.10
2019-05-18T03:49:51.642Z,50.30
2019-05-18T03:50:51.636Z,49.00
2019-05-18T03:51:51.665Z,50.00
2019-05-18T03:52:51.622Z,49.40
2019-05-18T03:53:51.612Z,49.00
2019-05-18T03:54:51.617Z,50.20
2019-05-18T03:55:51.605Z,49.30
2019-05-18T03:56:51.604Z,47.40
2019-05-18T03:57:51.635Z,48.10
2019-05-18T03:58:51.586Z,48.60
2019-05-18T03:59:51.584Z,47.20
2019-05-18T04:00:51.591Z,48.50
2019-05-18T04:01:51.575Z,48.90
2019-05-18T04:02:51.583Z,46.50
2019-05-18T04:03:51.563Z,46.50
2019-05-18T04:04:51.558Z,46.20
2019-05-18T04:05:51.595Z,43.80
2019-05-18T04:06:51.566Z,43.50
2019-05-18T04:07:51.559Z,42.50
2019-05-18T04:08:51.558Z,43.50
2019-05-18T04:09:51.539Z,43.90
2019-05-18T04:10:51.542Z,41.70
2019-05-18T04:11:51.553Z,42.50
2019-05-18T04:12:51.535Z,42.50
2019-05-18T04:13:51.530Z,40.20
2019-05-18T04:14:51.518Z,41.70
2019-05-18T04:15:51.512Z,40.60
2019-05-18T04:16:51.512Z,40.50
2019-05-18T04:17:51.498Z,39.70
2019-05-18T04:18:51.496Z,38.80
2019-05-18T04:19:51.524Z,40.30
2019-05-18T04:20:51.538Z,40.00
2019-05-18T04:21:51.540Z,39.10
2019-05-18T04:22:51.477Z,39.00
2019-05-18T04:23:51.473Z,38.20
2019-05-18T04:24:51.486Z,37.40
2019-05-18T04:25:51.465Z,37.90
2019-05-18T04:26:51.497Z,37.90
2019-05-18T04:27:51.479Z,36.70
2019-05-18T04:28:51.480Z,37.10
2019-05-18T04:29:51.448Z,37.30
2019-05-18T04:30:51.450Z,36.30
2019-05-18T04:31:51.470Z,37.40
2019-05-18T04:32:51.439Z,37.30
2019-05-18T04:33:51.434Z,36.90
2019-05-18T04:34:51.429Z,36.10
2019-05-18T04:35:51.426Z,36.10
2019-05-18T04:36:51.424Z,37.80
2019-05-18T04:37:51.422Z,37.10
2019-05-18T04:38:51.419Z,36.60
2019-05-18T04:39:51.409Z,35.20
2019-05-18T04:40:51.436Z,35.40
2019-05-18T04:41:51.408Z,34.10
2019-05-18T04:42:51.434Z,33.80
2019-05-18T04:43:51.401Z,34.20
2019-05-18T04:44:51.394Z,34.80
2019-05-18T04:45:51.390Z,34.30
2019-05-18T04:46:51.402Z,33.90
2019-05-18T04:47:51.389Z,35.90
2019-05-18T04:48:51.385Z,35.60
2019-05-18T04:50:04.328Z,34.90
2019-05-18T04:50:51.374Z,34.70
2019-05-18T04:51:51.376Z,34.60
2019-05-18T04:52:51.372Z,33.90
2019-05-18T04:53:51.369Z,34.90
2019-05-18T04:54:51.376Z,34.30
2019-05-18T04:55:51.362Z,35.40
2019-05-18T04:56:51.367Z,34.20
2019-05-18T04:57:51.360Z,33.50
2019-05-18T04:58:51.387Z,34.80
2019-05-18T04:59:51.354Z,35.10
2019-05-18T05:00:51.353Z,35.50
2019-05-18T05:01:51.358Z,33.90
2019-05-18T05:02:51.335Z,34.80
2019-05-18T05:03:51.341Z,34.80
2019-05-18T05:04:55.739Z,33.60
2019-05-18T05:05:51.382Z,34.20
2019-05-18T05:06:51.333Z,34.00
2019-05-18T05:07:51.330Z,33.70
2019-05-18T05:08:51.329Z,35.40
2019-05-18T05:09:51.327Z,34.90
2019-05-18T05:10:51.321Z,33.80
2019-05-18T05:11:51.320Z,34.00
2019-05-18T05:12:51.319Z,32.50
2019-05-18T05:13:51.314Z,33.20
2019-05-18T05:14:51.312Z,32.10
2019-05-18T05:15:51.315Z,32.80
2019-05-18T05:16:51.354Z,32.10
2019-05-18T05:17:51.307Z,32.00
2019-05-18T05:18:51.307Z,32.10
2019-05-18T05:19:51.303Z,33.40
2019-05-18T05:20:51.318Z,32.30
2019-05-18T05:21:51.301Z,31.20
2019-05-18T05:22:51.297Z,31.60
2019-05-18T05:23:51.298Z,32.80
2019-05-18T05:24:51.339Z,32.30
2019-05-18T05:25:51.298Z,31.10
2019-05-18T05:26:51.292Z,33.00
2019-05-18T05:27:51.325Z,32.30
2019-05-18T05:28:51.301Z,32.40
2019-05-18T05:29:51.292Z,32.10
2019-05-18T05:30:51.288Z,31.70
2019-05-18T05:31:51.292Z,32.50
2019-05-18T05:32:51.319Z,32.20
2019-05-18T05:33:51.310Z,33.40
2019-05-18T05:34:51.283Z,33.20
2019-05-18T05:35:51.290Z,33.50
2019-05-18T05:36:51.285Z,34.60
2019-05-18T05:37:51.283Z,34.30
2019-05-18T05:38:51.282Z,33.10
2019-05-18T05:39:51.282Z,33.50
2019-05-18T05:40:51.317Z,32.00
2019-05-18T05:41:51.321Z,31.60
2019-05-18T05:42:51.279Z,31.30
2019-05-18T05:43:51.284Z,32.20
2019-05-18T05:44:51.282Z,31.20
2019-05-18T05:45:51.283Z,30.40
2019-05-18T05:46:51.286Z,31.70
2019-05-18T05:47:51.280Z,31.70
2019-05-18T05:48:51.306Z,31.10
2019-05-18T05:49:51.333Z,30.30
2019-05-18T05:50:51.278Z,29.60
2019-05-18T05:51:51.278Z,29.30
2019-05-18T05:52:51.280Z,28.70
2019-05-18T05:53:51.276Z,27.70
2019-05-18T05:54:51.307Z,27.90
2019-05-18T05:55:51.281Z,27.10
2019-05-18T05:56:51.280Z,26.90
2019-05-18T05:57:51.291Z,27.10
2019-05-18T05:58:51.285Z,27.90
2019-05-18T05:59:51.290Z,27.00
2019-05-18T06:00:51.300Z,27.30
2019-05-18T06:01:51.283Z,26.40
2019-05-18T06:02:51.282Z,27.50
2019-05-18T06:03:51.289Z,27.10
2019-05-18T06:04:51.294Z,26.20
2019-05-18T06:05:51.301Z,27.00
2019-05-18T06:06:51.287Z,26.60
2019-05-18T06:07:51.287Z,26.40
2019-05-18T06:08:51.336Z,26.20
2019-05-18T06:09:51.321Z,26.00
2019-05-18T06:10:51.290Z,26.10
2019-05-18T06:11:51.297Z,25.60
2019-05-18T06:12:51.294Z,25.00
2019-05-18T06:13:51.301Z,25.00
2019-05-18T06:14:51.299Z,24.60
2019-05-18T06:15:51.303Z,23.80
2019-05-18T06:16:51.323Z,23.40
2019-05-18T06:17:51.302Z,23.70
2019-05-18T06:18:51.348Z,22.40
2019-05-18T06:19:51.325Z,22.80
2019-05-18T06:20:52.138Z,22.00
2019-05-18T06:21:51.309Z,22.40
2019-05-18T06:22:51.315Z,21.50
2019-05-18T06:23:51.313Z,21.50
2019-05-18T06:24:51.377Z,20.70
2019-05-18T06:25:51.313Z,20.60
2019-05-18T06:26:51.312Z,21.20
2019-05-18T06:27:51.325Z,20.80
2019-05-18T06:28:51.319Z,21.10
2019-05-18T06:29:51.344Z,19.20
2019-05-18T06:30:51.319Z,18.10
2019-05-18T06:31:51.318Z,17.20
2019-05-18T06:32:51.375Z,16.30
2019-05-18T06:33:51.333Z,17.00
2019-05-18T06:34:51.329Z,16.00
2019-05-18T06:35:51.354Z,15.50
2019-05-18T06:36:51.334Z,15.50
2019-05-18T06:37:51.348Z,14.80
2019-05-18T06:38:51.337Z,15.10
2019-05-18T06:39:51.339Z,14.90
2019-05-18T06:40:51.341Z,15.20
2019-05-18T06:41:51.343Z,14.50
2019-05-18T06:42:51.346Z,14.90
2019-05-18T06:43:51.350Z,12.50
2019-05-18T06:44:51.357Z,13.30
2019-05-18T06:45:51.365Z,12.80
2019-05-18T06:46:51.355Z,12.30
2019-05-18T06:47:51.361Z,12.20
2019-05-18T06:48:51.365Z,12.40
2019-05-18T06:49:51.363Z,11.90
2019-05-18T06:51:04.940Z,10.50
2019-05-18T06:51:51.371Z,11.10
2019-05-18T06:52:51.374Z,10.30
2019-05-18T06:53:51.375Z,10.60
2019-05-18T06:54:51.380Z,9.90
2019-05-18T06:55:51.383Z,10.10
2019-05-18T06:56:51.389Z,9.80
2019-05-18T06:57:51.388Z,9.10
2019-05-18T06:58:51.392Z,9.70
2019-05-18T06:59:51.397Z,9.30
2019-05-18T07:00:51.402Z,9.60
2019-05-18T07:01:51.404Z,9.50
2019-05-18T07:02:51.409Z,9.90
2019-05-18T07:03:51.411Z,9.90
2019-05-18T07:04:51.415Z,10.20
2019-05-18T07:05:51.418Z,10.40
2019-05-18T07:06:51.420Z,10.20
2019-05-18T07:07:51.427Z,10.70
2019-05-18T07:08:51.428Z,10.10
2019-05-18T07:09:51.445Z,9.70
2019-05-18T07:10:51.438Z,9.80
2019-05-18T07:11:51.443Z,9.50
2019-05-18T07:12:51.444Z,9.40
2019-05-18T07:13:51.446Z,9.10
2019-05-18T07:14:51.450Z,9.30
2019-05-18T07:15:51.456Z,9.30
2019-05-18T07:16:51.459Z,9.50
2019-05-18T07:17:51.465Z,9.30
2019-05-18T07:18:51.466Z,9.60
2019-05-18T07:19:51.474Z,9.40
2019-05-18T07:20:51.476Z,9.40
2019-05-18T07:21:51.480Z,9.00
2019-05-18T07:22:51.486Z,9.40
2019-05-18T07:23:51.487Z,9.10
2019-05-18T07:24:51.491Z,9.10
2019-05-18T07:25:51.497Z,9.30
2019-05-18T07:26:51.506Z,9.20
2019-05-18T07:27:51.505Z,9.20
2019-05-18T07:28:51.509Z,9.40
2019-05-18T07:29:51.513Z,9.70
2019-05-18T07:30:51.522Z,8.90
2019-05-18T07:31:51.525Z,8.10
2019-05-18T07:32:51.533Z,8.40
2019-05-18T07:33:51.533Z,8.60
2019-05-18T07:34:51.539Z,8.30
2019-05-18T07:35:51.542Z,8.40
2019-05-18T07:36:51.549Z,8.60
2019-05-18T07:37:51.578Z,9.40
2019-05-18T07:38:51.566Z,9.50
2019-05-18T07:39:51.563Z,9.00
2019-05-18T07:40:51.569Z,9.20
2019-05-18T07:41:51.572Z,8.80
2019-05-18T07:42:51.578Z,8.80
2019-05-18T07:43:51.583Z,9.20
2019-05-18T07:44:51.589Z,8.50
2019-05-18T07:45:51.592Z,8.30
2019-05-18T07:46:51.597Z,8.20
2019-05-18T07:47:51.608Z,8.40
2019-05-18T07:48:51.608Z,8.40
2019-05-18T07:49:51.610Z,8.20
2019-05-18T07:50:51.619Z,8.00
2019-05-18T07:51:51.623Z,8.20
2019-05-18T07:52:51.659Z,7.90
2019-05-18T07:53:51.636Z,8.20
2019-05-18T07:54:51.641Z,7.90
2019-05-18T07:55:51.646Z,7.50
2019-05-18T07:56:51.657Z,7.50
2019-05-18T07:57:51.783Z,7.80
2019-05-18T07:58:51.663Z,7.40
2019-05-18T07:59:51.670Z,7.70
2019-05-18T08:00:51.677Z,7.90
2019-05-18T08:01:51.682Z,8.50
2019-05-18T08:02:51.689Z,8.10
2019-05-18T08:03:51.695Z,7.90
2019-05-18T08:04:51.699Z,8.00
2019-05-18T08:05:51.703Z,7.40
2019-05-18T08:06:51.719Z,7.50
2019-05-18T08:07:51.717Z,7.20
2019-05-18T08:08:51.727Z,7.10
2019-05-18T08:09:51.726Z,7.00
2019-05-18T08:10:51.733Z,7.50
2019-05-18T08:11:51.739Z,7.90
2019-05-18T08:12:51.745Z,7.10
2019-05-18T08:13:51.750Z,7.10
2019-05-18T08:14:51.757Z,6.90
2019-05-18T08:15:51.815Z,6.80
2019-05-18T08:16:51.767Z,7.10
2019-05-18T08:17:51.774Z,6.80
2019-05-18T08:18:51.781Z,6.70
2019-05-18T08:19:51.791Z,6.90
2019-05-18T08:20:51.798Z,6.60
2019-05-18T08:21:53.532Z,7.20
2019-05-18T08:22:51.804Z,7.30
2019-05-18T08:23:51.813Z,7.00
2019-05-18T08:24:51.817Z,7.10
2019-05-18T08:25:51.821Z,7.20
2019-05-18T08:26:51.833Z,7.40
2019-05-18T08:27:51.836Z,7.40
2019-05-18T08:28:51.845Z,7.60
2019-05-18T08:29:51.848Z,8.00
2019-05-18T08:30:51.861Z,7.50
2019-05-18T08:31:51.859Z,7.00
2019-05-18T08:32:51.867Z,7.30
2019-05-18T08:33:51.873Z,7.80
2019-05-18T08:34:51.879Z,7.70
2019-05-18T08:35:51.885Z,8.00
2019-05-18T08:36:51.892Z,8.00
2019-05-18T08:37:51.898Z,8.00
2019-05-18T08:38:51.905Z,7.20
2019-05-18T08:39:51.909Z,7.50
2019-05-18T08:40:51.920Z,7.20
2019-05-18T08:41:51.928Z,6.60
2019-05-18T08:42:51.935Z,7.10
2019-05-18T08:43:51.937Z,7.70
2019-05-18T08:44:51.953Z,7.10
2019-05-18T08:45:51.949Z,6.80
2019-05-18T08:46:51.956Z,6.60
2019-05-18T08:47:51.967Z,6.60
2019-05-18T08:48:51.970Z,6.70
2019-05-18T08:49:51.980Z,6.20
2019-05-18T08:50:51.988Z,6.20
2019-05-18T08:51:51.989Z,6.40
2019-05-18T08:52:51.996Z,6.00
2019-05-18T08:53:52.005Z,6.60
2019-05-18T08:54:52.005Z,6.30
2019-05-18T08:55:52.016Z,6.70
2019-05-18T08:56:52.018Z,6.20
2019-05-18T08:57:52.021Z,5.90
2019-05-18T08:58:52.030Z,6.20
2019-05-18T08:59:52.033Z,6.10
2019-05-18T09:00:52.040Z,6.40
2019-05-18T09:01:52.057Z,6.30
2019-05-18T09:02:52.046Z,6.90
2019-05-18T09:03:52.051Z,7.20
2019-05-18T09:04:52.059Z,7.20
2019-05-18T09:05:52.059Z,6.60
2019-05-18T09:06:52.065Z,7.00
2019-05-18T09:07:52.093Z,6.90
2019-05-18T09:08:52.069Z,6.40
2019-05-18T09:09:52.077Z,6.60
2019-05-18T09:10:52.077Z,6.80
2019-05-18T09:11:52.083Z,6.90
2019-05-18T09:12:52.081Z,7.40
2019-05-18T09:13:52.085Z,6.90
2019-05-18T09:14:52.087Z,6.90
2019-05-18T09:15:52.089Z,6.90
2019-05-18T09:16:52.089Z,6.50
2019-05-18T09:17:52.091Z,6.40
2019-05-18T09:18:52.095Z,6.70
2019-05-18T09:19:52.095Z,7.00
2019-05-18T09:20:52.096Z,7.10
2019-05-18T09:21:52.099Z,6.60
2019-05-18T09:22:52.099Z,6.80
2019-05-18T09:23:52.102Z,7.20
2019-05-18T09:24:52.105Z,6.80
2019-05-18T09:25:52.105Z,7.10
2019-05-18T09:26:52.105Z,7.40
2019-05-18T09:27:52.108Z,7.20
2019-05-18T09:28:52.110Z,7.60
2019-05-18T09:29:52.110Z,7.70
2019-05-18T09:30:52.111Z,7.50
2019-05-18T09:31:52.112Z,7.10
2019-05-18T09:32:52.116Z,7.30
2019-05-18T09:33:52.114Z,7.90
2019-05-18T09:34:52.117Z,7.70
2019-05-18T09:35:52.132Z,7.50
2019-05-18T09:36:52.119Z,7.30
2019-05-18T09:37:52.120Z,7.40
2019-05-18T09:38:52.120Z,7.80
2019-05-18T09:39:52.122Z,7.40
2019-05-18T09:40:52.126Z,7.40
2019-05-18T09:41:52.127Z,6.70
2019-05-18T09:42:52.128Z,6.50
2019-05-18T09:43:52.125Z,6.40
2019-05-18T09:44:52.126Z,6.50
2019-05-18T09:45:52.126Z,6.40
2019-05-18T09:46:52.127Z,6.50
2019-05-18T09:47:52.133Z,6.30
2019-05-18T09:48:52.132Z,6.60
2019-05-18T09:49:52.130Z,5.70
2019-05-18T09:50:52.162Z,6.30
2019-05-18T09:51:52.133Z,6.00
2019-05-18T09:52:52.136Z,6.70
2019-05-18T09:53:52.201Z,6.50
2019-05-18T09:54:52.138Z,6.60
2019-05-18T09:55:52.134Z,6.50
2019-05-18T09:56:52.134Z,6.60
2019-05-18T09:57:52.135Z,6.40
2019-05-18T09:58:52.136Z,7.00
2019-05-18T09:59:52.136Z,6.60
2019-05-18T10:00:52.138Z,6.00
2019-05-18T10:01:52.137Z,6.30
2019-05-18T10:02:52.139Z,6.30
2019-05-18T10:03:52.140Z,6.20
2019-05-18T10:04:52.208Z,6.90
2019-05-18T10:05:52.141Z,6.40
2019-05-18T10:06:52.142Z,6.50
2019-05-18T10:07:52.143Z,7.00
2019-05-18T10:08:52.144Z,6.50
2019-05-18T10:09:52.146Z,6.80
2019-05-18T10:10:52.144Z,6.40
2019-05-18T10:11:52.147Z,6.40
2019-05-18T10:12:52.148Z,6.20
2019-05-18T10:13:52.149Z,6.40
2019-05-18T10:14:52.149Z,6.30
2019-05-18T10:15:52.155Z,6.60
2019-05-18T10:16:52.150Z,6.60
2019-05-18T10:17:52.149Z,6.10
2019-05-18T10:18:52.153Z,5.70
2019-05-18T10:19:52.155Z,6.70
2019-05-18T10:20:52.155Z,5.70
2019-05-18T10:21:52.154Z,5.60
2019-05-18T10:23:04.072Z,6.00
2019-05-18T10:23:52.156Z,5.80
2019-05-18T10:24:52.158Z,6.10
2019-05-18T10:25:52.157Z,5.70
2019-05-18T10:26:52.160Z,5.70
2019-05-18T10:27:52.161Z,5.50
2019-05-18T10:28:52.204Z,5.60
2019-05-18T10:29:52.163Z,5.60
2019-05-18T10:30:52.165Z,5.30
2019-05-18T10:31:52.165Z,5.60
2019-05-18T10:32:52.165Z,5.40
2019-05-18T10:33:52.166Z,5.80
2019-05-18T10:34:52.170Z,5.80
2019-05-18T10:35:52.168Z,5.80
2019-05-18T10:36:52.173Z,5.40
2019-05-18T10:37:52.168Z,5.10
2019-05-18T10:38:52.170Z,5.40
2019-05-18T10:39:52.175Z,5.50
2019-05-18T10:40:52.175Z,5.30
2019-05-18T10:41:52.175Z,5.40
2019-05-18T10:42:52.178Z,5.50
2019-05-18T10:43:52.177Z,5.60
2019-05-18T10:44:52.179Z,5.50
2019-05-18T10:45:52.183Z,5.30
2019-05-18T10:46:52.180Z,5.40
2019-05-18T10:47:52.192Z,5.50
2019-05-18T10:48:52.183Z,6.10
2019-05-18T10:49:52.186Z,5.70
2019-05-18T10:50:52.187Z,6.00
2019-05-18T10:51:52.188Z,6.00
2019-05-18T10:52:52.192Z,5.50
2019-05-18T10:53:52.190Z,5.70
2019-05-18T10:54:52.195Z,5.70
2019-05-18T10:55:52.194Z,6.00
2019-05-18T10:56:52.210Z,5.50
2019-05-18T10:57:52.198Z,5.50
2019-05-18T10:58:52.199Z,6.00
2019-05-18T10:59:52.209Z,6.00
2019-05-18T11:00:52.202Z,6.10
2019-05-18T11:01:52.205Z,5.90
2019-05-18T11:02:52.205Z,6.10
2019-05-18T11:03:52.207Z,6.10
2019-05-18T11:04:52.209Z,5.90
2019-05-18T11:05:52.211Z,6.10
2019-05-18T11:06:52.210Z,5.70
2019-05-18T11:07:52.216Z,6.20
2019-05-18T11:08:52.215Z,6.00
2019-05-18T11:09:52.220Z,6.10
2019-05-18T11:10:52.218Z,6.20
2019-05-18T11:11:52.222Z,6.40
2019-05-18T11:12:52.223Z,6.00
2019-05-18T11:13:52.227Z,5.90
2019-05-18T11:14:52.233Z,6.40
2019-05-18T11:15:52.227Z,6.60
2019-05-18T11:16:52.227Z,6.70
2019-05-18T11:17:52.232Z,6.40
2019-05-18T11:18:52.233Z,7.10
2019-05-18T11:19:52.232Z,7.30
2019-05-18T11:20:52.234Z,7.00
2019-05-18T11:21:52.234Z,6.80
2019-05-18T11:22:52.242Z,7.00
2019-05-18T11:23:52.238Z,6.80
2019-05-18T11:24:52.240Z,6.50
2019-05-18T11:25:52.241Z,7.00
2019-05-18T11:26:52.243Z,6.90
2019-05-18T11:27:52.241Z,6.50
2019-05-18T11:28:52.247Z,6.90
2019-05-18T11:29:52.248Z,7.10
2019-05-18T11:30:52.249Z,7.10
2019-05-18T11:31:52.250Z,7.00
2019-05-18T11:32:52.254Z,6.90
2019-05-18T11:33:52.260Z,6.70
2019-05-18T11:34:52.255Z,7.20
2019-05-18T11:35:52.257Z,6.70
2019-05-18T11:36:52.262Z,6.40
2019-05-18T11:37:52.264Z,6.60
2019-05-18T11:38:52.263Z,7.00
2019-05-18T11:39:52.266Z,6.90
2019-05-18T11:40:52.271Z,6.60
2019-05-18T11:41:52.267Z,7.00
2019-05-18T11:42:52.271Z,6.90
2019-05-18T11:43:52.272Z,6.70
2019-05-18T11:44:52.273Z,7.20
2019-05-18T11:45:52.273Z,7.20
2019-05-18T11:46:52.277Z,6.80
2019-05-18T11:47:52.276Z,6.80
2019-05-18T11:48:52.280Z,6.80
2019-05-18T11:49:52.287Z,6.30
2019-05-18T11:50:52.281Z,6.30
2019-05-18T11:51:52.290Z,6.50
2019-05-18T11:52:52.286Z,6.40
2019-05-18T11:53:58.467Z,6.60
2019-05-18T11:54:52.288Z,6.60
2019-05-18T11:55:52.301Z,5.80
2019-05-18T11:56:52.306Z,6.20
2019-05-18T11:57:52.301Z,5.70
2019-05-18T11:58:52.298Z,5.70
2019-05-18T11:59:52.297Z,5.80
2019-05-18T12:00:52.298Z,5.50
2019-05-18T12:01:52.304Z,5.40
2019-05-18T12:02:52.304Z,5.10
2019-05-18T12:03:52.307Z,5.90
2019-05-18T12:04:52.310Z,5.80
2019-05-18T12:05:52.306Z,5.70
2019-05-18T12:06:52.319Z,5.60
2019-05-18T12:07:52.311Z,5.50
2019-05-18T12:08:52.312Z,5.90
2019-05-18T12:09:52.313Z,5.00
2019-05-18T12:10:52.381Z,5.30
2019-05-18T12:11:52.317Z,4.80
2019-05-18T12:12:52.326Z,4.90
2019-05-18T12:13:52.320Z,8.60
2019-05-18T12:14:52.322Z,4.70
2019-05-18T12:15:52.323Z,4.50
2019-05-18T12:16:52.326Z,4.30
2019-05-18T12:17:52.332Z,4.10
2019-05-18T12:18:52.334Z,4.10
2019-05-18T12:19:52.345Z,5.90
2019-05-18T12:20:52.343Z,4.50
2019-05-18T12:21:52.334Z,4.20
2019-05-18T12:22:52.462Z,4.60
2019-05-18T12:23:52.341Z,4.70
2019-05-18T12:24:52.342Z,4.20
2019-05-18T12:25:52.341Z,4.20
2019-05-18T12:26:52.346Z,4.40
2019-05-18T12:27:52.362Z,4.20
2019-05-18T12:28:52.355Z,3.80
2019-05-18T12:29:52.360Z,3.80
2019-05-18T12:30:52.356Z,3.90
2019-05-18T12:31:52.359Z,3.80
2019-05-18T12:32:52.359Z,3.70
2019-05-18T12:33:52.361Z,3.70
2019-05-18T12:34:52.364Z,3.80
2019-05-18T12:35:52.367Z,4.80
2019-05-18T12:36:52.369Z,5.90
2019-05-18T12:37:52.372Z,5.60
2019-05-18T12:38:52.373Z,5.70
2019-05-18T12:39:52.376Z,5.40
2019-05-18T12:40:52.378Z,4.60
2019-05-18T12:41:52.380Z,4.80
2019-05-18T12:42:52.394Z,5.10
2019-05-18T12:43:52.386Z,5.40
2019-05-18T12:44:52.391Z,5.20
2019-05-18T12:45:52.390Z,5.50
2019-05-18T12:46:52.405Z,5.00
2019-05-18T12:47:52.396Z,4.80
2019-05-18T12:48:52.402Z,4.30
2019-05-18T12:49:52.453Z,4.00
2019-05-18T12:50:52.403Z,3.90
2019-05-18T12:51:52.404Z,3.50
2019-05-18T12:52:52.410Z,3.80
2019-05-18T12:53:52.418Z,3.80
2019-05-18T12:54:52.432Z,3.60
2019-05-18T12:55:52.416Z,4.00
2019-05-18T12:56:52.418Z,3.80
2019-05-18T12:57:52.421Z,3.90
2019-05-18T12:58:52.424Z,4.20
2019-05-18T12:59:52.429Z,4.10
2019-05-18T13:00:52.432Z,3.60
2019-05-18T13:01:52.435Z,3.80
2019-05-18T13:02:52.441Z,3.80
2019-05-18T13:03:52.437Z,3.80
2019-05-18T13:04:52.443Z,4.70